Time;durP1;ratioP1;P1;durP2;ratioP2;P2;SDS_P1;SDS_P2;PMS_P1;PMS_P2;Temp;Humidity;BMP_temperature;BMP_pressure;BME280_temperature;BME280_humidity;BME280_pressure;Samples;Min_cycle;Max_cycle;Signal;HPM_P1;HPM_P2
2023/01/18 00:00:18;;;;;;;5.88;1.20;;;;;;;15.74;100.00;101443.38;2102691;28;20043;-75
2023/01/18 00:01:40;;;;;;;3.88;0.85;;;;;;;15.71;100.00;101429.13;2102433;28;20086;-74
2023/01/18 00:03:03;;;;;;;6.28;1.38;;;;;;;15.72;100.00;101420.28;2102466;28;20537;-74
2023/01/18 00:04:26;;;;;;;10.73;1.67;;;;;;;15.74;100.00;101432.72;2088433;28;20080;-74
2023/01/18 00:05:47;;;;;;;7.90;1.60;;;;;;;15.73;100.00;101419.41;2087581;28;20063;-74
2023/01/18 00:07:09;;;;;;;11.77;2.13;;;;;;;15.69;100.00;101421.13;2099742;28;20105;-75
2023/01/18 00:08:33;;;;;;;6.82;1.50;;;;;;;15.65;100.00;101424.66;2096625;28;20048;-75
2023/01/18 00:09:55;;;;;;;8.48;1.30;;;;;;;15.64;100.00;101427.31;2090292;28;20047;-75
2023/01/18 00:11:17;;;;;;;6.30;1.65;;;;;;;15.64;100.00;101422.88;2100027;28;20078;-74
2023/01/18 00:12:40;;;;;;;4.60;1.10;;;;;;;15.61;100.00;101411.34;2102802;28;20052;-75
2023/01/18 00:14:01;;;;;;;5.47;1.60;;;;;;;15.62;100.00;101419.31;2102624;28;20142;-75
2023/01/18 00:15:26;;;;;;;5.25;1.30;;;;;;;15.63;100.00;101413.13;2101874;28;20138;-74
2023/01/18 00:16:48;;;;;;;4.18;1.05;;;;;;;15.68;100.00;101432.69;2102810;28;20055;-74
2023/01/18 00:18:09;;;;;;;7.90;1.48;;;;;;;15.76;100.00;101430.03;2101396;28;20056;-75
2023/01/18 00:19:32;;;;;;;3.30;1.00;;;;;;;15.78;100.00;101418.53;2102214;28;20513;-75
2023/01/18 00:20:53;;;;;;;5.85;1.30;;;;;;;15.84;100.00;101429.22;2102624;28;20051;-75
2023/01/18 00:22:16;;;;;;;8.20;1.75;;;;;;;15.86;100.00;101435.44;2101913;28;20044;-75
2023/01/18 00:23:37;;;;;;;9.52;1.75;;;;;;;15.85;100.00;101433.66;2107946;28;20052;-74
2023/01/18 00:25:00;;;;;;;5.53;1.23;;;;;;;15.82;100.00;101435.38;2111015;28;20064;-75
2023/01/18 00:26:21;;;;;;;7.13;1.27;;;;;;;15.80;100.00;101430.09;2104849;28;20268;-75
2023/01/18 00:27:47;;;;;;;7.88;1.60;;;;;;;15.80;100.00;101435.41;2093994;28;20055;-75
2023/01/18 00:29:09;;;;;;;10.73;1.58;;;;;;;15.74;100.00;101427.41;2092204;28;20048;-74
2023/01/18 00:30:33;;;;;;;4.97;0.98;;;;;;;15.69;100.00;101430.88;2099955;28;20048;-74
2023/01/18 00:31:57;;;;;;;6.65;1.60;;;;;;;15.65;100.00;101437.97;2102848;28;20047;-75
2023/01/18 00:33:20;;;;;;;3.45;1.10;;;;;;;15.63;100.00;101434.41;2102294;28;20052;-75
2023/01/18 00:34:42;;;;;;;6.68;1.40;;;;;;;15.66;100.00;101437.09;2096673;28;20048;-75
2023/01/18 00:36:04;;;;;;;6.22;1.63;;;;;;;15.67;100.00;101438.88;2093522;28;20063;-75
2023/01/18 00:37:27;;;;;;;;;;;;;;;15.61;100.00;101430.88;2094603;28;20047;-75
2023/01/18 00:38:51;;;;;;;11.00;1.90;;;;;;;15.59;100.00;101429.06;2085782;28;20470;-75
2023/01/18 00:40:13;;;;;;;4.72;1.15;;;;;;;15.58;100.00;101427.28;2091739;28;20041;-75
2023/01/18 00:43:37;;;;;;;9.85;2.00;;;;;;;15.57;100.00;101430.81;2094221;28;20137;-74
2023/01/18 00:44:58;;;;;;;4.55;1.50;;;;;;;15.51;100.00;101435.19;2088053;28;20053;-75
2023/01/18 00:46:24;;;;;;;7.60;1.70;;;;;;;15.50;100.00;101419.22;2093960;28;20060;-74
2023/01/18 00:47:45;;;;;;;7.15;1.75;;;;;;;15.48;100.00;101413.91;2086038;28;20396;-75
2023/01/18 00:49:07;;;;;;;6.80;1.73;;;;;;;15.45;100.00;101419.19;2084387;28;20037;-74
2023/01/18 00:50:28;;;;;;;5.35;1.48;;;;;;;15.45;100.00;101410.31;2098310;28;20068;-74
2023/01/18 00:51:51;;;;;;;10.35;2.20;;;;;;;15.48;100.00;101421.00;2102295;28;20493;-74
2023/01/18 00:53:12;;;;;;;7.35;1.50;;;;;;;15.49;100.00;101417.47;2100397;28;20101;-75
2023/01/18 00:54:35;;;;;;;8.02;1.52;;;;;;;15.45;100.00;101424.53;2092738;28;20429;-74
2023/01/18 00:55:57;;;;;;;6.53;1.65;;;;;;;15.44;100.00;101413.84;2100567;28;20594;-75
2023/01/18 00:57:18;;;;;;;9.02;1.75;;;;;;;15.44;100.00;101404.09;2095808;28;20062;-75
2023/01/18 00:58:41;;;;;;;6.65;1.83;;;;;;;15.44;100.00;101409.44;2096543;28;20044;-74
2023/01/18 01:00:11;;;;;;;5.82;1.35;;;;;;;15.45;100.00;101405.91;2094427;28;20509;-74
2023/01/18 01:01:35;;;;;;;7.88;2.40;;;;;;;15.44;100.00;101408.53;2101469;28;20044;-74
2023/01/18 01:02:56;;;;;;;8.82;1.63;;;;;;;15.42;100.00;101410.31;2102357;28;20117;-75
2023/01/18 01:07:37;;;;;;;6.68;2.20;;;;;;;15.38;100.00;101404.06;2104714;28;20052;-74
2023/01/18 01:08:59;;;;;;;11.55;4.82;;;;;;;15.37;100.00;101417.34;2102162;28;20094;-74
2023/01/18 01:10:22;;;;;;;5.90;2.28;;;;;;;15.37;100.00;101412.03;2102374;28;20079;-74
2023/01/18 01:12:31;;;;;;;5.10;1.30;;;;;;;15.38;100.00;101404.06;2093472;28;20098;-73
2023/01/18 01:26:48;;;;;;;5.95;1.10;;;;;;;15.47;100.00;101409.47;2090829;28;20052;-74
2023/01/18 01:28:09;;;;;;;6.22;1.00;;;;;;;15.51;100.00;101411.25;2090642;28;20032;-74
2023/01/18 01:29:32;;;;;;;4.63;1.00;;;;;;;15.52;100.00;101413.06;2090754;28;20544;-74
2023/01/18 01:30:58;;;;;;;4.53;1.27;;;;;;;15.54;100.00;101406.00;2088121;28;20060;-74
2023/01/18 01:32:21;;;;;;;7.95;1.08;;;;;;;15.57;100.00;101402.44;2088375;28;20726;-74
2023/01/18 01:33:44;;;;;;;4.38;1.13;;;;;;;15.57;100.00;101394.47;2088152;28;20056;-74
2023/01/18 01:35:07;;;;;;;6.63;1.40;;;;;;;15.57;100.00;101396.22;2088371;28;20273;-75
2023/01/18 01:36:30;;;;;;;11.05;1.50;;;;;;;15.57;100.00;101399.78;2088232;28;20075;-74
2023/01/18 01:37:51;;;;;;;6.70;1.23;;;;;;;15.59;100.00;101395.38;2088369;28;20121;-74
2023/01/18 01:39:13;;;;;;;5.72;1.33;;;;;;;15.60;100.00;101398.91;2087664;28;20044;-74
2023/01/18 01:40:34;;;;;;;8.80;1.05;;;;;;;15.58;100.00;101390.03;2085096;28;20049;-74
2023/01/18 01:41:57;;;;;;;4.70;1.10;;;;;;;15.58;100.00;101396.25;2093738;28;20044;-74
2023/01/18 01:43:35;;;;;;;5.95;2.00;;;;;;;15.58;100.00;101396.25;2088277;28;20117;-74
2023/01/18 01:44:57;;;;;;;8.75;1.48;;;;;;;15.55;100.00;101404.22;2098613;28;20052;-74
2023/01/18 01:46:34;;;;;;;6.65;1.25;;;;;;;15.56;100.00;101408.63;2096442;28;20049;-75
2023/01/18 01:47:58;;;;;;;6.00;1.30;;;;;;;15.57;100.00;101417.50;2098517;28;20509;-74
2023/01/18 01:49:25;;;;;;;6.65;1.40;;;;;;;15.57;100.00;101415.75;2090484;28;20328;-75
2023/01/18 01:50:47;;;;;;;5.45;1.40;;;;;;;15.57;100.00;101417.50;2095295;28;20044;-74
2023/01/18 01:52:10;;;;;;;6.13;1.75;;;;;;;15.56;100.00;101418.44;2096671;28;20494;-75
2023/01/18 01:53:32;;;;;;;6.63;1.20;;;;;;;15.56;100.00;101408.63;2096058;28;20044;-74
2023/01/18 01:54:58;;;;;;;3.97;1.10;;;;;;;15.58;100.00;101414.88;2096664;28;20048;-75
2023/01/18 01:56:21;;;;;;;6.70;1.30;;;;;;;15.60;100.00;101433.50;2097136;28;20422;-74
2023/01/18 01:57:47;;;;;;;7.25;1.60;;;;;;;15.60;100.00;101423.75;2096215;28;20106;-75
2023/01/18 01:59:11;;;;;;;6.40;1.25;;;;;;;15.63;100.00;101422.88;2097099;28;20498;-74
2023/01/18 02:00:34;;;;;;;5.80;1.13;;;;;;;15.66;100.00;101425.56;2098857;28;20057;-74
2023/01/18 02:01:56;;;;;;;4.80;1.30;;;;;;;15.71;100.00;101414.06;2096303;28;20052;-75
2023/01/18 02:03:23;;;;;;;3.45;1.35;;;;;;;15.76;100.00;101404.31;2096639;28;20082;-75
2023/01/18 02:04:52;;;;;;;10.95;2.25;;;;;;;15.80;100.00;101424.75;2090869;28;20094;-74
2023/01/18 02:06:30;;;;;;;6.38;0.98;;;;;;;15.86;100.00;101424.78;2103648;28;20082;-74
2023/01/18 02:07:53;;;;;;;10.35;1.77;;;;;;;15.89;100.00;101440.75;2098594;28;20036;-75
2023/01/18 02:09:21;;;;;;;6.60;1.33;;;;;;;15.91;100.00;101433.69;2096535;28;20048;-74
2023/01/18 02:10:42;;;;;;;7.60;1.35;;;;;;;15.93;100.00;101436.34;2096927;28;20076;-75
2023/01/18 02:12:06;;;;;;;8.75;1.70;;;;;;;15.93;100.00;101433.69;2087831;28;20048;-75
2023/01/18 02:13:29;;;;;;;7.63;1.13;;;;;;;15.94;100.00;101433.72;2093927;28;20109;-74
2023/01/18 02:14:51;;;;;;;10.20;1.92;;;;;;;15.94;100.00;101441.69;2097370;28;20044;-75
2023/01/18 02:16:21;;;;;;;14.95;1.60;;;;;;;15.90;100.00;101439.00;2096280;28;20872;-74
2023/01/18 02:18:14;;;;;;;5.90;1.20;;;;;;;15.87;100.00;101441.66;2097347;28;20199;-74
2023/01/18 02:20:05;;;;;;;7.05;1.80;;;;;;;15.84;100.00;101441.63;2107427;28;20090;-74
2023/01/18 02:21:31;;;;;;;5.55;1.30;;;;;;;15.82;100.00;101433.63;2098729;28;20929;-74
2023/01/18 02:23:29;;;;;;;12.88;1.90;;;;;;;15.78;100.00;101437.16;2105176;28;20051;-73
2023/01/18 02:25:23;;;;;;;7.78;2.00;;;;;;;15.67;100.00;101436.22;2099278;28;20055;-74
2023/01/18 02:27:01;;;;;;;10.07;2.17;;;;;;;15.59;100.00;101424.63;2098728;28;20067;-74
2023/01/18 02:28:28;;;;;;;5.72;1.65;;;;;;;15.59;100.00;101431.72;2098268;28;20055;-74
2023/01/18 02:30:07;;;;;;;7.30;1.80;;;;;;;15.60;100.00;101425.53;2096929;28;20044;-74
2023/01/18 02:31:37;;;;;;;5.50;1.02;;;;;;;15.61;100.00;101425.56;2103040;28;20058;-75
2023/01/18 02:33:07;;;;;;;5.60;1.67;;;;;;;15.64;100.00;101428.22;2104255;28;20040;-75
2023/01/18 02:34:38;;;;;;;10.57;1.83;;;;;;;15.65;100.00;101419.34;2095913;28;20058;-75
2023/01/18 02:36:02;;;;;;;11.23;2.17;;;;;;;15.65;100.00;101414.03;2104089;28;20064;-74
2023/01/18 02:37:37;;;;;;;8.77;1.50;;;;;;;15.63;100.00;101417.53;2103623;28;20051;-74
2023/01/18 02:39:05;;;;;;;7.63;1.60;;;;;;;15.59;100.00;101414.00;2096783;28;20057;-75
2023/01/18 02:40:32;;;;;;;6.85;1.30;;;;;;;15.56;100.00;101418.44;2102537;28;20040;-74
2023/01/18 02:47:10;;;;;;;8.98;2.47;;;;;;;15.53;100.00;101414.84;2106100;28;20040;-74
2023/01/18 02:48:34;;;;;;;9.25;1.95;;;;;;;15.52;100.00;101413.06;2103260;28;20059;-74
2023/01/18 02:49:57;;;;;;;9.63;1.65;;;;;;;15.51;100.00;101413.00;2103080;28;20048;-75
2023/01/18 02:51:18;;;;;;;5.65;1.50;;;;;;;15.51;100.00;101415.69;2103222;28;20063;-75
2023/01/18 02:52:46;;;;;;;10.70;1.25;;;;;;;15.51;100.00;101415.69;2103206;28;20043;-73
2023/01/18 02:54:10;;;;;;;9.55;2.03;;;;;;;15.52;100.00;101406.81;2103555;28;20055;-74
2023/01/18 02:55:39;;;;;;;7.45;1.48;;;;;;;15.52;100.00;101406.81;2095171;28;20106;-74
2023/01/18 02:57:06;;;;;;;6.22;1.10;;;;;;;15.50;100.00;101403.25;2102239;28;20389;-75
2023/01/18 02:58:33;;;;;;;6.88;1.30;;;;;;;15.50;100.00;101397.94;2103727;28;20085;-74
2023/01/18 02:59:58;;;;;;;7.32;1.70;;;;;;;15.50;100.00;101403.25;2103808;28;20036;-74
2023/01/18 03:01:26;;;;;;;5.53;1.48;;;;;;;15.50;100.00;101405.91;2103616;28;20146;-74
2023/01/18 03:02:49;;;;;;;7.47;1.58;;;;;;;15.47;100.00;101405.91;2103863;28;20513;-74
2023/01/18 03:04:18;;;;;;;4.50;1.25;;;;;;;15.44;100.00;101397.91;2102853;28;20471;-74
2023/01/18 03:05:41;;;;;;;6.63;1.40;;;;;;;15.45;100.00;101405.00;2103895;28;20047;-74
2023/01/18 03:07:16;;;;;;;10.52;1.55;;;;;;;15.47;100.00;101403.25;2103237;28;20448;-74
2023/01/18 03:08:43;;;;;;;9.40;1.55;;;;;;;15.47;100.00;101403.25;2104900;28;20413;-73
2023/01/18 03:10:09;;;;;;;9.38;1.40;;;;;;;15.47;100.00;101404.16;2103606;28;20040;-74
2023/01/18 03:11:41;;;;;;;8.20;1.73;;;;;;;15.48;100.00;101399.72;2103891;28;20080;-74
2023/01/18 03:13:08;;;;;;;9.18;2.00;;;;;;;15.44;100.00;101403.22;2100321;28;20040;-74
2023/01/18 03:14:42;;;;;;;8.63;1.80;;;;;;;15.41;100.00;101408.53;2094736;28;20103;-74
2023/01/18 03:16:13;;;;;;;7.05;1.98;;;;;;;15.38;100.00;101406.72;2087053;28;20044;-74
2023/01/18 03:17:41;;;;;;;5.68;1.98;;;;;;;15.35;100.00;101405.84;2093979;28;20045;-74
2023/01/18 03:20:54;;;;;;;7.53;1.90;;;;;;;15.34;100.00;101412.94;2097303;28;20401;-74
2023/01/18 03:22:16;;;;;;;7.13;2.08;;;;;;;15.38;100.00;101405.84;2097363;28;20040;-74
2023/01/18 03:23:41;;;;;;;9.23;2.17;;;;;;;15.40;100.00;101407.66;2102580;28;20044;-73
2023/01/18 03:25:03;;;;;;;7.72;1.95;;;;;;;15.41;100.00;101411.19;2103024;28;20521;-74
2023/01/18 03:26:28;;;;;;;5.20;1.45;;;;;;;15.40;100.00;101402.31;2102917;28;20056;-74
2023/01/18 03:34:44;;;;;;;7.40;1.92;;;;;;;15.37;100.00;101423.56;2096807;28;20509;-74
2023/01/18 03:36:11;;;;;;;6.88;1.40;;;;;;;15.41;100.00;101424.50;2110167;28;20668;-74
2023/01/18 03:37:38;;;;;;;7.45;1.67;;;;;;;15.44;100.00;101430.72;2105489;28;20378;-74
2023/01/18 03:39:02;;;;;;;9.50;1.88;;;;;;;15.46;100.00;101428.97;2094881;28;20090;-74
2023/01/18 03:40:28;;;;;;;4.63;1.40;;;;;;;15.47;100.00;101435.19;2092411;28;20112;-74
2023/01/18 03:41:53;;;;;;;6.10;1.50;;;;;;;15.49;100.00;101431.63;2094876;28;20041;-74
2023/01/18 03:43:18;;;;;;;10.70;2.13;;;;;;;15.47;100.00;101429.84;2103294;28;20040;-74
2023/01/18 03:44:46;;;;;;;11.77;2.08;;;;;;;15.46;100.00;101423.66;2095976;28;20048;-74
2023/01/18 03:46:09;;;;;;;11.68;2.10;;;;;;;15.45;100.00;101437.81;2094823;28;20044;-74
2023/01/18 03:47:33;;;;;;;5.45;1.58;;;;;;;15.47;100.00;101435.19;2094531;28;20044;-75
2023/01/18 03:48:55;;;;;;;8.70;2.85;;;;;;;15.45;100.00;101432.50;2086313;28;20430;-74
2023/01/18 03:50:17;;;;;;;;;;;;;;;15.38;100.00;101436.00;2092157;28;20040;-74
2023/01/18 03:51:53;;;;;;;10.05;2.30;;;;;;;15.38;100.00;101443.09;2094543;28;19920;-73
2023/01/18 03:53:24;;;;;;;10.07;2.22;;;;;;;15.41;100.00;101433.38;2095943;28;20040;-74
2023/01/18 03:54:55;;;;;;;9.85;1.83;;;;;;;15.41;100.00;101436.03;2095355;28;20138;-75
2023/01/18 03:56:25;;;;;;;6.78;2.10;;;;;;;15.40;100.00;101446.66;2098581;28;20390;-74
2023/01/18 03:57:51;;;;;;;5.75;2.63;;;;;;;15.40;100.00;101425.38;2095516;28;20528;-74
2023/01/18 03:59:13;;;;;;;6.95;1.60;;;;;;;15.40;100.00;101431.59;2092590;28;20116;-74
2023/01/18 04:00:36;;;;;;;4.90;1.52;;;;;;;15.43;100.00;101438.69;2100019;28;20048;-74
2023/01/18 04:01:58;;;;;;;9.55;2.22;;;;;;;15.43;100.00;101439.56;2102918;28;20405;-75
2023/01/18 04:03:21;;;;;;;8.20;1.80;;;;;;;15.44;100.00;101448.44;2102473;28;20040;-74
2023/01/18 04:04:44;;;;;;;7.03;2.30;;;;;;;15.43;100.00;101450.22;2102613;28;20480;-74
2023/01/18 04:06:06;;;;;;;6.43;1.50;;;;;;;15.45;100.00;101452.91;2102660;28;20047;-74
2023/01/18 04:07:29;;;;;;;8.60;1.63;;;;;;;15.45;100.00;101452.91;2102387;28;20097;-74
2023/01/18 04:08:50;;;;;;;6.53;1.52;;;;;;;15.43;100.00;101458.19;2094358;28;20472;-74
2023/01/18 04:10:13;;;;;;;4.60;1.58;;;;;;;15.41;100.00;101445.78;2091421;28;20028;-74
2023/01/18 04:11:35;;;;;;;6.43;1.80;;;;;;;15.39;100.00;101452.84;2099963;28;20109;-74
2023/01/18 04:12:56;;;;;;;8.05;2.10;;;;;;;15.39;100.00;101444.88;2102539;28;20043;-74
2023/01/18 04:14:19;;;;;;;4.45;1.25;;;;;;;15.38;100.00;101451.06;2093702;28;20067;-74
2023/01/18 04:15:41;;;;;;;4.88;1.80;;;;;;;15.38;100.00;101445.75;2086052;28;20138;-74
2023/01/18 04:17:04;;;;;;;5.40;1.85;;;;;;;15.38;100.00;101445.75;2091541;28;20055;-74
2023/01/18 04:18:26;;;;;;;8.75;1.58;;;;;;;15.39;100.00;101456.41;2094303;28;20094;-74
2023/01/18 04:19:49;;;;;;;9.18;2.30;;;;;;;15.34;100.00;101449.28;2094038;28;20522;-74
2023/01/18 04:21:10;;;;;;;10.48;2.30;;;;;;;15.32;100.00;101451.91;2094095;28;20040;-74
2023/01/18 04:22:33;;;;;;;8.75;1.85;;;;;;;15.29;100.00;101451.91;2093887;28;20048;-74
2023/01/18 04:23:54;;;;;;;12.75;2.03;;;;;;;15.27;100.00;101452.78;2110246;28;20112;-74
2023/01/18 04:25:17;;;;;;;7.82;1.90;;;;;;;15.27;100.00;101452.78;2105194;28;20059;-74
2023/01/18 04:26:39;;;;;;;11.63;2.30;;;;;;;15.25;100.00;101454.53;2102432;28;20052;-73
2023/01/18 04:28:00;;;;;;;10.80;2.38;;;;;;;15.22;100.00;101463.38;2102054;28;20494;-74
2023/01/18 04:29:22;;;;;;;9.68;2.20;;;;;;;15.18;100.00;101460.66;2102313;28;20101;-74
2023/01/18 04:30:43;;;;;;;4.63;1.70;;;;;;;15.19;100.00;101462.47;2101613;28;20064;-75
2023/01/18 04:32:06;;;;;;;16.25;3.50;;;;;;;15.21;100.00;101463.38;2102264;28;20132;-74
2023/01/18 04:33:29;;;;;;;9.15;2.15;;;;;;;15.24;100.00;101463.38;2096682;28;20052;-74
2023/01/18 04:34:52;;;;;;;5.90;1.77;;;;;;;15.24;100.00;101471.34;2101858;28;20127;-74
2023/01/18 04:36:13;;;;;;;7.57;1.80;;;;;;;15.27;100.00;101466.97;2093972;28;20079;-74
2023/01/18 04:37:36;;;;;;;13.93;2.20;;;;;;;15.28;100.00;101471.41;2099627;28;20672;-74
2023/01/18 04:38:59;;;;;;;4.55;1.83;;;;;;;15.28;100.00;101470.53;2102485;28;20586;-74
2023/01/18 04:40:20;;;;;;;7.13;1.75;;;;;;;15.28;100.00;101478.50;2096532;28;20044;-74
2023/01/18 04:41:43;;;;;;;5.07;1.70;;;;;;;15.29;100.00;101483.84;2099426;28;20147;-75
2023/01/18 04:43:04;;;;;;;6.18;1.73;;;;;;;15.27;100.00;101476.72;2102416;28;20040;-75
2023/01/18 04:44:27;;;;;;;7.30;1.58;;;;;;;15.26;100.00;101477.59;2102175;28;20089;-74
2023/01/18 04:45:57;;;;;;;11.27;2.63;;;;;;;15.26;100.00;101480.25;2102463;28;20563;-75
2023/01/18 04:47:20;;;;;;;11.63;3.50;;;;;;;15.26;100.00;101475.81;2102480;28;20068;-74
2023/01/18 04:48:44;;;;;;;8.23;2.75;;;;;;;15.30;100.00;101487.38;2093688;28;20055;-74
2023/01/18 04:50:07;;;;;;;8.77;2.40;;;;;;;15.31;100.00;101481.16;2100078;28;20044;-73
2023/01/18 04:51:30;;;;;;;7.40;2.53;;;;;;;15.31;100.00;101475.84;2102408;28;20361;-74
2023/01/18 04:52:52;;;;;;;16.63;8.52;;;;;;;15.33;100.00;101476.75;2102438;28;20075;-74
2023/01/18 04:54:16;;;;;;;19.05;11.02;;;;;;;15.35;100.00;101475.00;2102191;28;20040;-74
2023/01/18 04:55:38;;;;;;;12.98;4.97;;;;;;;15.36;100.00;101480.31;2093924;28;20407;-74
2023/01/18 04:57:01;;;;;;;9.98;4.35;;;;;;;15.41;100.00;101483.03;2099488;28;20131;-74
2023/01/18 04:58:22;;;;;;;9.10;2.92;;;;;;;15.42;100.00;101474.19;2094083;28;20048;-74
2023/01/18 04:59:45;;;;;;;9.70;2.78;;;;;;;15.42;100.00;101479.50;2099279;28;20060;-74
2023/01/18 05:01:11;;;;;;;6.35;2.90;;;;;;;15.41;100.00;101475.06;2094024;28;20049;-74
2023/01/18 05:02:32;;;;;;;15.38;6.38;;;;;;;15.40;100.00;101475.94;2093746;28;20530;-74
2023/01/18 05:03:56;;;;;;;9.70;5.22;;;;;;;15.40;100.00;101471.50;2092898;28;20060;-74
2023/01/18 05:05:18;;;;;;;10.18;4.10;;;;;;;15.40;100.00;101471.50;2094124;28;20051;-74
2023/01/18 05:06:41;;;;;;;7.43;3.17;;;;;;;15.41;100.00;101469.72;2093633;28;20431;-74
2023/01/18 05:08:03;;;;;;;9.55;4.97;;;;;;;15.40;100.00;101467.94;2093844;28;20043;-75
2023/01/18 05:09:25;;;;;;;11.40;5.95;;;;;;;15.41;100.00;101473.28;2093499;28;20052;-75
2023/01/18 05:10:47;;;;;;;11.45;5.97;;;;;;;15.41;100.00;101472.41;2102307;28;20055;-74
2023/01/18 05:12:10;;;;;;;12.73;5.03;;;;;;;15.39;100.00;101475.03;2096481;28;20430;-74
2023/01/18 05:13:31;;;;;;;9.20;4.32;;;;;;;15.40;100.00;101475.94;2098803;28;20114;-74
2023/01/18 05:14:54;;;;;;;10.82;4.53;;;;;;;15.39;100.00;101472.38;2096417;28;20049;-74
2023/01/18 05:16:18;;;;;;;8.43;4.15;;;;;;;15.40;100.00;101475.94;2096194;28;20060;-74
2023/01/18 05:17:41;;;;;;;8.98;2.83;;;;;;;15.36;100.00;101475.00;2096404;28;20056;-74
2023/01/18 05:19:04;;;;;;;13.52;5.13;;;;;;;15.36;100.00;101482.13;2096456;28;20040;-74
2023/01/18 05:20:27;;;;;;;15.55;7.88;;;;;;;15.35;100.00;101477.69;2096246;28;20056;-74
2023/01/18 05:21:49;;;;;;;10.07;5.13;;;;;;;15.35;100.00;101478.56;2103038;28;20098;-75
2023/01/18 05:23:13;;;;;;;15.50;8.70;;;;;;;15.41;100.00;101488.34;2102045;28;20056;-74
2023/01/18 05:24:35;;;;;;;12.40;8.13;;;;;;;15.43;100.00;101489.25;2106722;28;20044;-74
2023/01/18 05:25:58;;;;;;;10.82;6.43;;;;;;;15.43;100.00;101486.56;2110540;28;20060;-74
2023/01/18 05:27:21;;;;;;;9.85;4.45;;;;;;;15.39;100.00;101485.69;2102226;28;20567;-74
2023/01/18 05:28:43;;;;;;;13.40;8.25;;;;;;;15.38;100.00;101499.84;2099428;28;20102;-75
2023/01/18 05:30:06;;;;;;;;;;;;;;;15.34;100.00;101491.84;2108510;28;20528;-74
2023/01/18 05:31:28;;;;;;;;;;;;;;;15.28;100.00;101498.03;2110438;28;19965;-74
2023/01/18 05:32:50;;;;;;;16.50;8.98;;;;;;;15.30;100.00;101501.56;2110324;28;19977;-74
2023/01/18 05:34:14;;;;;;;10.80;4.32;;;;;;;15.34;100.00;101497.16;2110186;28;20040;-74
2023/01/18 05:35:35;;;;;;;14.30;8.00;;;;;;;15.34;100.00;101500.72;2110503;28;20040;-74
2023/01/18 05:36:58;;;;;;;15.27;8.25;;;;;;;15.35;100.00;101494.53;2110205;28;20147;-75
2023/01/18 05:38:21;;;;;;;20.02;12.52;;;;;;;15.36;100.00;101496.28;2112074;28;20047;-74
2023/01/18 05:39:43;;;;;;;15.63;7.97;;;;;;;15.37;100.00;101500.72;2096319;28;20052;-74
2023/01/18 05:41:05;;;;;;;14.38;8.38;;;;;;;15.38;100.00;101504.28;2096187;28;20549;-74
2023/01/18 05:42:27;;;;;;;16.55;10.70;;;;;;;15.37;100.00;101505.16;2096283;28;20048;-74
2023/01/18 05:43:49;;;;;;;16.55;11.55;;;;;;;15.36;100.00;101498.09;2093245;28;20049;-74
2023/01/18 05:45:12;;;;;;;16.05;10.73;;;;;;;15.41;100.00;101504.31;2093325;28;20065;-74
2023/01/18 05:46:34;;;;;;;23.30;15.32;;;;;;;15.43;100.00;101494.56;2093708;28;20040;-74
2023/01/18 05:47:57;;;;;;;18.00;13.27;;;;;;;15.46;100.00;101497.25;2093591;28;20052;-74
2023/01/18 05:49:21;;;;;;;22.33;13.10;;;;;;;15.48;100.00;101499.06;2093706;28;20047;-73
2023/01/18 05:50:43;;;;;;;32.63;23.75;;;;;;;15.50;100.00;101499.06;2093992;28;20195;-74
2023/01/18 05:52:09;;;;;;;22.60;17.55;;;;;;;15.49;100.00;101498.16;2093655;28;20037;-74
2023/01/18 05:53:31;;;;;;;23.17;16.08;;;;;;;15.54;100.00;101500.91;2093638;28;20105;-74
2023/01/18 05:54:54;;;;;;;25.73;19.05;;;;;;;15.59;100.00;101503.59;2085537;28;20059;-74
2023/01/18 05:56:17;;;;;;;35.28;22.55;;;;;;;15.60;100.00;101495.63;2090772;28;20052;-74
2023/01/18 05:57:39;;;;;;;46.55;32.63;;;;;;;15.61;100.00;101500.06;2093751;28;20048;-74
2023/01/18 05:59:02;;;;;;;48.17;32.47;;;;;;;15.62;100.00;101496.50;2087851;28;20053;-74
2023/01/18 06:00:24;;;;;;;25.65;18.15;;;;;;;15.64;100.00;101491.19;2090916;28;20047;-74
2023/01/18 06:01:46;;;;;;;19.75;14.48;;;;;;;15.69;100.00;101497.44;2093768;28;20044;-74
2023/01/18 06:03:09;;;;;;;18.17;11.35;;;;;;;15.72;100.00;101486.81;2093875;28;20079;-75
2023/01/18 06:04:32;;;;;;;14.38;6.75;;;;;;;15.74;100.00;101485.97;2084990;28;20413;-74
2023/01/18 06:05:55;;;;;;;11.45;6.20;;;;;;;15.78;100.00;101489.53;2099156;28;20272;-75
2023/01/18 06:07:16;;;;;;;14.55;7.10;;;;;;;15.77;100.00;101487.72;2096326;28;20076;-73
2023/01/18 06:08:38;;;;;;;11.65;6.15;;;;;;;15.78;100.00;101495.75;2086108;28;20426;-74
2023/01/18 06:10:01;;;;;;;13.98;7.65;;;;;;;15.77;100.00;101493.94;2092663;28;20047;-75
2023/01/18 06:11:23;;;;;;;14.90;7.97;;;;;;;15.81;100.00;101493.09;2095348;28;20052;-74
2023/01/18 06:12:44;;;;;;;14.15;6.88;;;;;;;15.85;100.00;101491.34;2101958;28;20056;-75
2023/01/18 06:14:07;;;;;;;10.25;3.35;;;;;;;15.85;100.00;101486.00;2095153;28;20051;-74
2023/01/18 06:15:29;;;;;;;9.98;3.85;;;;;;;15.85;100.00;101486.00;2095077;28;20075;-74
2023/01/18 06:16:52;;;;;;;5.32;2.00;;;;;;;15.86;100.00;101487.81;2094931;28;20048;-74
2023/01/18 06:18:14;;;;;;;5.93;2.33;;;;;;;15.85;100.00;101497.56;2103581;28;20437;-74
2023/01/18 06:19:41;;;;;;;6.15;2.53;;;;;;;15.87;100.00;101478.94;2096991;28;20375;-74
2023/01/18 06:21:04;;;;;;;12.55;6.10;;;;;;;15.90;100.00;101486.91;2103454;28;20048;-74
2023/01/18 06:22:26;;;;;;;15.95;8.90;;;;;;;15.92;100.00;101488.72;2105993;28;20101;-75
2023/01/18 06:23:48;;;;;;;16.38;11.93;;;;;;;15.91;100.00;101502.91;2113185;28;20054;-75
2023/01/18 06:25:11;;;;;;;16.20;11.70;;;;;;;15.90;100.00;101497.56;2111629;28;20051;-75
2023/01/18 06:26:33;;;;;;;20.90;13.25;;;;;;;15.89;100.00;101506.44;2111650;28;20055;-74
2023/01/18 06:27:55;;;;;;;8.65;5.88;;;;;;;15.87;100.00;101505.56;2103283;28;20410;-75
2023/01/18 06:29:18;;;;;;;16.77;9.85;;;;;;;15.93;100.00;101486.97;2102998;28;20106;-75
2023/01/18 06:30:41;;;;;;;11.68;5.35;;;;;;;15.99;100.00;101499.41;2094949;28;20048;-75
2023/01/18 06:32:04;;;;;;;12.55;7.57;;;;;;;16.00;100.00;101501.19;2094926;28;20135;-75
2023/01/18 06:33:26;;;;;;;11.05;5.22;;;;;;;16.00;100.00;101496.75;2097583;28;20045;-74
2023/01/18 06:34:50;;;;;;;14.75;9.93;;;;;;;15.99;100.00;101502.97;2089133;28;20430;-75
2023/01/18 06:36:12;;;;;;;9.18;5.25;;;;;;;15.98;100.00;101489.63;2093470;28;20709;-74
2023/01/18 06:37:34;;;;;;;18.80;13.85;;;;;;;16.00;100.00;101490.53;2094943;28;20056;-74
2023/01/18 06:38:57;;;;;;;21.00;13.70;;;;;;;16.00;100.00;101491.44;2103375;28;20085;-73
2023/01/18 06:40:19;;;;;;;27.77;22.15;;;;;;;16.05;100.00;101491.44;2103042;28;20040;-73
2023/01/18 06:41:40;;;;;;;24.73;16.73;;;;;;;16.06;100.00;101498.56;2102849;28;20098;-73
2023/01/18 06:43:03;;;;;;;33.50;27.38;;;;;;;16.06;100.00;101491.47;2094961;28;20045;-74
2023/01/18 06:44:24;;;;;;;19.67;16.45;;;;;;;16.12;100.00;101487.94;2103036;28;20055;-74
2023/01/18 06:45:52;;;;;;;12.95;6.60;;;;;;;16.17;100.00;101502.16;2103294;28;20113;-74
2023/01/18 06:47:18;;;;;;;9.85;5.28;;;;;;;16.15;100.00;101494.16;2097625;28;20067;-75
2023/01/18 06:48:40;;;;;;;7.95;2.25;;;;;;;16.13;100.00;101517.25;2094905;28;20052;-75
2023/01/18 06:50:05;;;;;;;5.45;1.88;;;;;;;16.13;100.00;101503.03;2094810;28;20060;-75
2023/01/18 06:51:28;;;;;;;3.40;1.35;;;;;;;16.18;100.00;101514.59;2095245;28;20373;-75
2023/01/18 06:52:50;;;;;;;5.90;1.70;;;;;;;16.26;100.00;101508.44;2094643;28;20048;-75
2023/01/18 06:54:14;;;;;;;6.03;1.60;;;;;;;16.30;100.00;101515.53;2086238;28;20053;-75
2023/01/18 06:55:36;;;;;;;6.20;1.50;;;;;;;16.29;100.00;101524.41;2092472;28;20048;-75
2023/01/18 06:56:58;;;;;;;10.45;2.30;;;;;;;16.35;100.00;101523.53;2094602;28;20041;-75
2023/01/18 06:58:21;;;;;;;7.47;1.58;;;;;;;16.50;100.00;101512.94;2094537;28;20540;-74